createdAt,value
2022-07-26T00:02:03.185Z,22.30
2022-07-26T00:05:07.146Z,22.18
2022-07-26T00:08:13.023Z,22.21
2022-07-26T00:11:17.279Z,22.24
2022-07-26T00:14:19.965Z,22.24
2022-07-26T00:17:22.781Z,22.19
2022-07-26T00:20:27.704Z,22.10
2022-07-26T00:23:31.362Z,22.08
2022-07-26T00:26:35.848Z,22.14
2022-07-26T00:29:38.580Z,22.13
2022-07-26T00:32:41.800Z,22.10
2022-07-26T00:35:44.595Z,22.12
2022-07-26T00:38:47.352Z,22.08
2022-07-26T00:41:51.479Z,22.11
2022-07-26T00:44:54.327Z,22.14
2022-07-26T00:47:57.174Z,22.13
2022-07-26T00:50:59.954Z,22.08
2022-07-26T00:54:02.742Z,22.11
2022-07-26T00:57:09.151Z,22.15
2022-07-26T01:00:14.701Z,22.15
2022-07-26T01:03:17.490Z,22.07
2022-07-26T01:06:25.300Z,21.99
2022-07-26T01:09:30.879Z,22.03
2022-07-26T01:12:37.525Z,21.98
2022-07-26T01:15:40.299Z,21.88
2022-07-26T01:18:43.093Z,21.87
2022-07-26T01:21:47.331Z,21.70
2022-07-26T01:24:49.970Z,21.70
2022-07-26T01:27:52.890Z,21.59
2022-07-26T01:30:55.691Z,21.64
2022-07-26T01:33:58.573Z,21.68
2022-07-26T01:37:03.303Z,21.58
2022-07-26T01:40:07.347Z,21.47
2022-07-26T01:43:11.241Z,21.38
2022-07-26T01:46:14.474Z,21.47
2022-07-26T01:49:17.363Z,21.43
2022-07-26T01:52:21.741Z,21.51
2022-07-26T01:55:24.351Z,21.59
2022-07-26T01:58:27.495Z,21.47
2022-07-26T02:01:38.046Z,21.46
2022-07-26T02:04:56.522Z,21.46
2022-07-26T02:08:00.704Z,21.38
2022-07-26T02:11:04.162Z,21.42
2022-07-26T02:14:07.315Z,21.42
2022-07-26T02:17:10.250Z,21.32
2022-07-26T02:20:13.201Z,21.16
2022-07-26T02:23:17.277Z,21.19
2022-07-26T02:26:20.069Z,21.21
2022-07-26T02:29:22.700Z,21.20
2022-07-26T02:32:25.539Z,21.19
2022-07-26T02:35:28.235Z,21.19
2022-07-26T02:38:32.368Z,21.19
2022-07-26T02:41:35.450Z,21.12
2022-07-26T02:44:38.048Z,21.06
2022-07-26T02:47:50.516Z,21.07
2022-07-26T02:50:53.154Z,21.06
2022-07-26T02:53:57.364Z,21.02
2022-07-26T02:56:59.962Z,20.97
2022-07-26T03:00:02.930Z,20.99
2022-07-26T03:03:05.951Z,20.86
2022-07-26T03:06:08.876Z,20.79
2022-07-26T03:09:13.052Z,20.69
2022-07-26T03:12:15.818Z,20.65
2022-07-26T03:15:18.581Z,20.62
2022-07-26T03:18:21.380Z,20.52
2022-07-26T03:21:24.570Z,20.53
2022-07-26T03:24:28.698Z,20.46
2022-07-26T03:27:31.398Z,20.42
2022-07-26T03:30:34.347Z,20.30
2022-07-26T03:33:37.252Z,20.18
2022-07-26T03:36:39.938Z,20.19
2022-07-26T03:39:44.152Z,20.12
2022-07-26T03:42:47.739Z,20.13
2022-07-26T03:45:50.568Z,20.06
2022-07-26T03:48:53.278Z,20.16
2022-07-26T03:51:56.367Z,20.29
2022-07-26T03:55:00.346Z,20.27
2022-07-26T03:58:02.320Z,20.33
2022-07-26T04:01:05.058Z,20.32
2022-07-26T04:04:08.936Z,20.36
2022-07-26T04:07:11.909Z,20.49
2022-07-26T04:10:17.833Z,20.44
2022-07-26T04:13:24.036Z,20.44
2022-07-26T04:16:26.927Z,20.51
2022-07-26T04:19:29.679Z,20.47
2022-07-26T04:22:32.797Z,20.40
2022-07-26T04:25:40.679Z,20.48
2022-07-26T04:28:44.582Z,20.54
2022-07-26T04:31:47.374Z,20.53
2022-07-26T04:34:50.398Z,20.48
2022-07-26T04:37:53.004Z,20.61
2022-07-26T04:40:58.103Z,20.76
2022-07-26T04:44:00.845Z,20.85
2022-07-26T04:47:03.627Z,21.09
2022-07-26T04:50:08.388Z,21.38
2022-07-26T04:53:11.809Z,21.52
2022-07-26T04:56:15.905Z,21.36
2022-07-26T04:59:21.792Z,21.41
2022-07-26T05:02:24.946Z,21.62
2022-07-26T05:05:29.862Z,21.60
2022-07-26T05:08:32.649Z,21.67
2022-07-26T05:11:37.556Z,21.73
2022-07-26T05:14:40.211Z,21.88
2022-07-26T05:17:44.071Z,22.20
2022-07-26T05:20:47.302Z,22.30
2022-07-26T05:23:50.316Z,22.52
2022-07-26T05:26:58.563Z,23.09
2022-07-26T05:30:01.614Z,23.33
2022-07-26T05:33:04.412Z,23.51
2022-07-26T05:36:07.787Z,23.65
2022-07-26T05:39:14.212Z,23.68
2022-07-26T05:42:20.114Z,23.78
2022-07-26T05:45:22.910Z,24.05
2022-07-26T05:48:25.612Z,24.72
2022-07-26T05:51:30.201Z,25.27
2022-07-26T05:54:32.864Z,25.03
2022-07-26T05:57:36.932Z,25.55
2022-07-26T06:00:42.279Z,25.35
2022-07-26T06:03:47.144Z,25.28
2022-07-26T06:06:50.175Z,24.90
2022-07-26T06:09:52.920Z,25.24
2022-07-26T06:12:56.886Z,25.50
2022-07-26T06:15:59.806Z,25.42
2022-07-26T06:19:02.646Z,25.27
2022-07-26T06:22:05.382Z,25.41
2022-07-26T06:25:09.027Z,25.95
2022-07-26T06:28:13.050Z,25.80
2022-07-26T06:31:15.886Z,25.59
2022-07-26T06:34:18.667Z,25.64
2022-07-26T06:37:21.460Z,25.66
2022-07-26T06:40:24.111Z,25.63
2022-07-26T06:43:28.229Z,25.83
2022-07-26T06:46:31.025Z,25.78
2022-07-26T06:49:33.744Z,26.26
2022-07-26T06:52:36.645Z,26.07
2022-07-26T06:55:39.275Z,25.96
2022-07-26T06:58:43.894Z,25.86
2022-07-26T07:01:57.913Z,26.34
2022-07-26T07:05:03.639Z,26.63
2022-07-26T07:08:07.423Z,26.44
2022-07-26T07:11:10.270Z,26.12
2022-07-26T07:14:14.678Z,26.11
2022-07-26T07:17:20.395Z,26.79
2022-07-26T07:20:23.500Z,27.12
2022-07-26T07:23:26.271Z,26.21
2022-07-26T07:26:29.042Z,26.00
2022-07-26T07:29:33.182Z,25.47
2022-07-26T07:32:36.042Z,26.51
2022-07-26T07:35:38.745Z,27.37
2022-07-26T07:38:42.907Z,27.18
2022-07-26T07:41:46.402Z,27.27
2022-07-26T07:44:50.499Z,27.95
2022-07-26T07:47:53.231Z,27.71
2022-07-26T07:50:55.856Z,26.73
2022-07-26T07:54:01.211Z,26.75
2022-07-26T07:57:05.418Z,26.76
2022-07-26T08:00:12.558Z,26.29
2022-07-26T08:03:19.267Z,25.56
2022-07-26T08:06:22.151Z,25.52
2022-07-26T08:09:25.703Z,25.26
2022-07-26T08:12:31.465Z,25.25
2022-07-26T08:15:35.651Z,25.74
2022-07-26T08:18:53.603Z,25.90
2022-07-26T08:21:59.280Z,27.53
2022-07-26T08:25:02.085Z,27.32
2022-07-26T08:28:05.208Z,27.66
2022-07-26T08:31:09.506Z,28.65
2022-07-26T08:34:12.261Z,29.39
2022-07-26T08:37:17.582Z,29.17
2022-07-26T08:40:20.926Z,28.88
2022-07-26T08:43:23.778Z,29.36
2022-07-26T08:46:28.381Z,29.84
2022-07-26T08:49:31.176Z,28.90
2022-07-26T08:52:34.122Z,28.88
2022-07-26T08:56:04.368Z,28.57
2022-07-26T08:59:00.327Z,28.11
2022-07-26T09:02:06.448Z,28.44
2022-07-26T09:05:09.765Z,28.00
2022-07-26T09:08:25.308Z,27.55
2022-07-26T09:11:30.445Z,26.91
2022-07-26T09:14:39.958Z,27.46
2022-07-26T09:17:45.795Z,28.29
2022-07-26T09:20:48.783Z,29.28
2022-07-26T09:23:51.467Z,29.46
2022-07-26T09:26:57.842Z,28.78
2022-07-26T09:30:08.058Z,29.55
2022-07-26T09:33:12.105Z,30.16
2022-07-26T09:36:14.921Z,29.51
2022-07-26T09:39:17.562Z,28.19
2022-07-26T09:42:28.936Z,27.32
2022-07-26T09:45:34.465Z,27.00
2022-07-26T09:49:09.345Z,26.90
2022-07-26T09:52:02.405Z,27.11
2022-07-26T09:55:06.869Z,28.19
2022-07-26T09:58:09.755Z,28.22
2022-07-26T10:01:12.600Z,28.15
2022-07-26T10:04:17.421Z,27.74
2022-07-26T10:07:20.311Z,27.38
2022-07-26T10:10:26.847Z,27.41
2022-07-26T10:13:30.491Z,26.99
2022-07-26T10:16:34.563Z,26.73
2022-07-26T10:19:45.392Z,26.49
2022-07-26T10:22:50.310Z,26.35
2022-07-26T10:25:53.021Z,26.40
2022-07-26T10:28:55.868Z,26.46
2022-07-26T10:32:17.772Z,27.44
2022-07-26T10:35:32.806Z,28.72
2022-07-26T10:38:35.488Z,29.38
2022-07-26T10:41:41.526Z,30.04
2022-07-26T10:44:45.161Z,30.51
2022-07-26T10:48:12.641Z,31.10
2022-07-26T10:51:27.991Z,31.12
2022-07-26T10:54:30.684Z,29.87
2022-07-26T10:57:36.085Z,30.47
2022-07-26T11:00:38.769Z,31.03
2022-07-26T11:03:43.065Z,31.22
2022-07-26T11:06:47.259Z,30.06
2022-07-26T11:09:49.907Z,29.62
2022-07-26T11:13:03.472Z,28.76
2022-07-26T11:16:08.327Z,28.49
2022-07-26T11:19:16.364Z,27.88
2022-07-26T11:22:22.573Z,27.30
2022-07-26T11:25:25.294Z,26.96
2022-07-26T11:28:28.026Z,27.00
2022-07-26T11:31:50.804Z,26.84
2022-07-26T11:35:04.735Z,26.69
2022-07-26T11:38:12.242Z,26.65
2022-07-26T11:41:17.581Z,27.17
2022-07-26T11:44:23.177Z,27.97
2022-07-26T11:47:26.556Z,27.78
2022-07-26T11:50:29.553Z,27.84
2022-07-26T11:53:38.258Z,28.16
2022-07-26T11:56:41.093Z,28.06
2022-07-26T11:59:46.357Z,27.72
2022-07-26T12:02:52.688Z,27.34
2022-07-26T12:06:06.090Z,26.84
2022-07-26T12:09:10.206Z,26.42
2022-07-26T12:12:21.266Z,25.66
2022-07-26T12:15:24.199Z,25.34
2022-07-26T12:18:28.774Z,24.82
2022-07-26T12:21:45.724Z,24.13
2022-07-26T12:24:57.240Z,23.68
2022-07-26T12:27:59.901Z,23.34
2022-07-26T12:31:02.774Z,22.77
2022-07-26T12:34:05.606Z,22.55
2022-07-26T12:37:13.639Z,22.47
2022-07-26T12:40:19.296Z,22.45
2022-07-26T12:43:21.936Z,22.37
2022-07-26T12:46:24.779Z,22.50
2022-07-26T12:49:27.509Z,22.04
2022-07-26T12:52:30.729Z,22.00
2022-07-26T12:55:36.107Z,21.77
2022-07-26T12:58:38.876Z,21.63
2022-07-26T13:01:41.981Z,21.71
2022-07-26T13:04:45.514Z,21.89
2022-07-26T13:07:48.857Z,22.28
2022-07-26T13:10:58.135Z,22.37
2022-07-26T13:14:02.749Z,22.55
2022-07-26T13:17:06.702Z,22.69
2022-07-26T13:20:10.376Z,22.81
2022-07-26T13:23:15.906Z,22.52
2022-07-26T13:26:26.056Z,22.44
2022-07-26T13:29:29.395Z,22.72
2022-07-26T13:32:32.118Z,22.90
2022-07-26T13:35:34.972Z,22.95
2022-07-26T13:38:37.670Z,22.89
2022-07-26T13:41:42.034Z,22.96
2022-07-26T13:44:44.895Z,22.61
2022-07-26T13:47:47.669Z,22.74
2022-07-26T13:50:50.855Z,22.97
2022-07-26T13:53:55.683Z,23.13
2022-07-26T13:57:00.933Z,23.09
2022-07-26T14:00:04.079Z,23.12
2022-07-26T14:03:06.943Z,23.03
2022-07-26T14:06:09.551Z,23.09
2022-07-26T14:09:12.625Z,23.49
2022-07-26T14:12:16.665Z,23.71
2022-07-26T14:15:22.507Z,23.85
2022-07-26T14:18:25.986Z,23.61
2022-07-26T14:21:29.755Z,23.64
2022-07-26T14:24:50.126Z,23.74
2022-07-26T14:27:55.772Z,23.66
2022-07-26T14:30:58.411Z,23.98
2022-07-26T14:34:01.285Z,24.12
2022-07-26T14:37:08.344Z,24.27
2022-07-26T14:40:26.997Z,24.18
2022-07-26T14:43:31.012Z,24.29
2022-07-26T14:46:33.685Z,24.20
2022-07-26T14:49:36.415Z,24.79
2022-07-26T14:52:40.111Z,25.21
2022-07-26T14:55:43.063Z,25.09
2022-07-26T14:58:47.012Z,25.33
2022-07-26T15:01:49.811Z,24.98
2022-07-26T15:04:52.764Z,25.06
2022-07-26T15:07:56.364Z,25.23
2022-07-26T15:10:59.145Z,25.11
2022-07-26T15:14:06.033Z,24.34
2022-07-26T15:17:09.197Z,24.50
2022-07-26T15:20:11.894Z,24.13
2022-07-26T15:23:15.209Z,24.11
2022-07-26T15:26:18.254Z,24.13
2022-07-26T15:29:22.346Z,23.83
2022-07-26T15:32:25.211Z,23.55
2022-07-26T15:35:27.977Z,23.70
2022-07-26T15:38:30.777Z,23.47
2022-07-26T15:41:34.275Z,23.52
2022-07-26T15:44:39.399Z,23.61
2022-07-26T15:47:54.828Z,23.69
2022-07-26T15:50:59.053Z,23.84
2022-07-26T15:54:03.332Z,23.90
2022-07-26T15:57:06.011Z,23.77
2022-07-26T16:00:12.272Z,23.71
2022-07-26T16:03:15.566Z,23.82
2022-07-26T16:06:18.167Z,24.00
2022-07-26T16:09:22.014Z,24.12
2022-07-26T16:12:24.721Z,24.06
2022-07-26T16:15:28.831Z,23.98
2022-07-26T16:18:31.552Z,23.65
2022-07-26T16:21:34.414Z,23.79
2022-07-26T16:24:37.172Z,23.96
2022-07-26T16:27:39.791Z,23.80
2022-07-26T16:30:43.974Z,23.78
2022-07-26T16:33:46.862Z,23.95
2022-07-26T16:36:50.739Z,24.32
2022-07-26T16:39:55.483Z,24.24
2022-07-26T16:42:58.258Z,24.34
2022-07-26T16:46:02.549Z,24.38
2022-07-26T16:49:05.273Z,24.30
2022-07-26T16:52:08.260Z,24.15
2022-07-26T16:55:11.571Z,23.90
2022-07-26T16:58:14.383Z,23.86
2022-07-26T17:01:18.517Z,23.66
2022-07-26T17:04:21.380Z,23.68
2022-07-26T17:07:25.872Z,23.47
2022-07-26T17:10:28.899Z,23.19
2022-07-26T17:13:32.103Z,23.30
2022-07-26T17:16:36.335Z,23.20
2022-07-26T17:19:39.206Z,23.12
2022-07-26T17:22:41.835Z,23.18
2022-07-26T17:25:44.573Z,23.20
2022-07-26T17:28:48.006Z,23.04
2022-07-26T17:31:52.821Z,23.13
2022-07-26T17:34:55.458Z,23.09
2022-07-26T17:37:58.099Z,23.09
2022-07-26T17:41:00.783Z,22.91
2022-07-26T17:44:03.814Z,22.92
2022-07-26T17:47:28.583Z,22.73
2022-07-26T17:50:38.788Z,22.53
2022-07-26T17:53:42.249Z,22.46
2022-07-26T17:56:44.902Z,22.55
2022-07-26T17:59:47.559Z,22.49
2022-07-26T18:02:51.539Z,22.51
2022-07-26T18:05:54.490Z,22.42
2022-07-26T18:08:57.253Z,22.32
2022-07-26T18:12:00.114Z,22.12
2022-07-26T18:15:02.761Z,22.13
2022-07-26T18:18:07.840Z,22.10
2022-07-26T18:21:11.803Z,21.99
2022-07-26T18:24:17.277Z,21.88
2022-07-26T18:27:20.750Z,21.93
2022-07-26T18:30:23.618Z,21.85
2022-07-26T18:33:27.670Z,21.73
2022-07-26T18:36:34.573Z,21.71
2022-07-26T18:39:37.366Z,21.61
2022-07-26T18:42:40.062Z,21.60
2022-07-26T18:45:42.722Z,21.68
2022-07-26T18:48:47.844Z,21.49
2022-07-26T18:51:51.431Z,21.46
2022-07-26T18:54:55.594Z,21.45
2022-07-26T18:58:00.925Z,21.31
2022-07-26T19:01:07.513Z,21.29
2022-07-26T19:04:11.930Z,21.33
2022-07-26T19:07:14.751Z,21.24
2022-07-26T19:10:17.581Z,21.26
2022-07-26T19:13:20.194Z,21.16
2022-07-26T19:16:22.902Z,21.04
2022-07-26T19:19:27.826Z,20.96
2022-07-26T19:22:31.229Z,20.95
2022-07-26T19:25:34.066Z,20.88
2022-07-26T19:28:36.935Z,20.88
2022-07-26T19:31:42.060Z,20.80
2022-07-26T19:34:46.141Z,20.78
2022-07-26T19:37:48.930Z,20.76
2022-07-26T19:40:51.563Z,20.76
2022-07-26T19:43:54.371Z,20.70
2022-07-26T19:46:57.901Z,20.64
2022-07-26T19:50:02.566Z,20.52
2022-07-26T19:53:05.360Z,20.52
2022-07-26T19:56:08.388Z,20.38
2022-07-26T19:59:11.362Z,20.37
2022-07-26T20:02:14.572Z,20.33
2022-07-26T20:05:18.995Z,20.22
2022-07-26T20:08:21.846Z,20.19
2022-07-26T20:11:25.067Z,20.16
2022-07-26T20:14:27.936Z,20.10
2022-07-26T20:17:33.364Z,19.93
2022-07-26T20:20:37.601Z,19.88
2022-07-26T20:23:40.366Z,19.86
2022-07-26T20:26:43.000Z,19.79
2022-07-26T20:29:45.822Z,19.78
2022-07-26T20:32:48.440Z,19.74
2022-07-26T20:35:55.055Z,19.69
2022-07-26T20:38:58.099Z,19.67
2022-07-26T20:42:01.913Z,19.62
2022-07-26T20:45:05.847Z,19.52
2022-07-26T20:48:14.192Z,19.52
2022-07-26T20:51:18.379Z,19.48
2022-07-26T20:54:21.059Z,19.42
2022-07-26T20:57:23.837Z,19.39
2022-07-26T21:00:27.225Z,19.33
2022-07-26T21:03:30.094Z,19.32
2022-07-26T21:06:34.348Z,19.23
2022-07-26T21:09:37.009Z,19.19
2022-07-26T21:12:39.700Z,19.18
2022-07-26T21:15:42.482Z,19.09
2022-07-26T21:18:45.495Z,19.06
2022-07-26T21:21:57.101Z,19.06
2022-07-26T21:25:00.250Z,18.97
2022-07-26T21:28:03.071Z,19.14
2022-07-26T21:31:05.695Z,18.98
2022-07-26T21:34:08.570Z,18.90
2022-07-26T21:37:13.508Z,19.03
2022-07-26T21:40:16.279Z,19.08
2022-07-26T21:43:19.709Z,19.01
2022-07-26T21:46:22.468Z,19.06
2022-07-26T21:49:25.347Z,19.14
2022-07-26T21:52:29.502Z,19.10
2022-07-26T21:55:32.442Z,19.18
2022-07-26T21:58:36.916Z,19.06
2022-07-26T22:01:40.003Z,19.17
2022-07-26T22:04:43.938Z,19.12
2022-07-26T22:07:47.944Z,19.09
2022-07-26T22:10:50.883Z,19.00
2022-07-26T22:13:53.647Z,19.12
2022-07-26T22:16:56.476Z,19.00
2022-07-26T22:19:59.151Z,19.00
2022-07-26T22:23:05.765Z,19.11
2022-07-26T22:26:08.630Z,18.93
2022-07-26T22:29:11.586Z,18.92
2022-07-26T22:32:14.532Z,18.91
2022-07-26T22:35:17.391Z,18.85
2022-07-26T22:38:22.324Z,18.89
2022-07-26T22:41:25.107Z,18.77
2022-07-26T22:44:27.804Z,18.68
2022-07-26T22:47:30.577Z,18.82
2022-07-26T22:50:33.802Z,18.77
2022-07-26T22:53:37.969Z,18.77
2022-07-26T22:56:42.142Z,18.85
2022-07-26T22:59:44.864Z,18.78
2022-07-26T23:02:48.889Z,18.67
2022-07-26T23:05:52.284Z,18.65
2022-07-26T23:08:56.552Z,18.58
2022-07-26T23:12:00.330Z,18.43
2022-07-26T23:15:03.234Z,18.60
2022-07-26T23:18:06.056Z,18.53
2022-07-26T23:21:08.727Z,18.48
2022-07-26T23:24:12.852Z,18.61
2022-07-26T23:27:19.796Z,18.60
2022-07-26T23:30:23.159Z,18.51
2022-07-26T23:33:51.264Z,18.48
2022-07-26T23:36:48.903Z,18.19
2022-07-26T23:39:53.024Z,18.33
2022-07-26T23:42:56.169Z,18.18
2022-07-26T23:45:58.944Z,18.31
2022-07-26T23:49:03.554Z,18.34
2022-07-26T23:52:06.506Z,18.23
2022-07-26T23:55:11.815Z,18.17
2022-07-26T23:58:14.494Z,18.09
